TimeCDT,TemperatureF,Dew PointF,Humidity,Sea Level PressureIn,VisibilityMPH,Wind Direction,Wind SpeedMPH,Gust SpeedMPH,PrecipitationIn,Events,Conditions,WindDirDegrees,DateUTC
12:16 AM,70.7,68.9,94,30.21,10.0,Calm,Calm,-,N/A,,Mostly Cloudy,0,2013-07-15 05:16:00
12:36 AM,69.8,68.2,95,30.21,10.0,Calm,Calm,-,N/A,,Mostly Cloudy,0,2013-07-15 05:36:00
12:56 AM,70.2,68.7,95,30.21,10.0,Calm,Calm,-,N/A,,Mostly Cloudy,0,2013-07-15 05:56:00
1:16 AM,69.6,68.5,96,30.22,7.0,Calm,Calm,-,N/A,,Mostly Cloudy,0,2013-07-15 06:16:00
1:36 AM,69.3,68.4,97,30.22,7.0,Calm,Calm,-,N/A,,Scattered Clouds,0,2013-07-15 06:36:00
1:56 AM,69.1,68.4,98,30.22,7.0,Calm,Calm,-,N/A,,Scattered Clouds,0,2013-07-15 06:56:00
2:17 AM,68.7,67.8,97,30.21,7.0,Calm,Calm,-,N/A,,Scattered Clouds,0,2013-07-15 07:17:00
2:36 AM,68.4,67.6,98,30.21,5.0,Calm,Calm,-,N/A,,Scattered Clouds,0,2013-07-15 07:36:00
2:56 AM,68.5,68.0,98,30.21,5.0,Calm,Calm,-,N/A,,Scattered Clouds,0,2013-07-15 07:56:00
3:16 AM,68.5,68.0,98,30.21,5.0,Calm,Calm,-,N/A,,Mostly Cloudy,0,2013-07-15 08:16:00
3:36 AM,67.6,67.1,98,30.21,3.0,Calm,Calm,-,N/A,,Scattered Clouds,0,2013-07-15 08:36:00
3:56 AM,67.8,67.3,98,30.21,1.2,Calm,Calm,-,N/A,,Scattered Clouds,0,2013-07-15 08:56:00
4:17 AM,67.5,67.1,99,30.21,1.8,Calm,Calm,-,N/A,,Mist,0,2013-07-15 09:17:00
4:36 AM,67.1,66.6,98,30.21,2.0,Calm,Calm,-,N/A,,Clear,0,2013-07-15 09:36:00
4:56 AM,66.9,66.7,99,30.21,7.0,Calm,Calm,-,N/A,,Clear,0,2013-07-15 09:56:00
5:16 AM,66.7,66.4,99,30.21,10.0,Calm,Calm,-,N/A,,Clear,0,2013-07-15 10:16:00
5:36 AM,65.7,65.1,98,30.21,7.0,Calm,Calm,-,N/A,,Clear,0,2013-07-15 10:36:00
5:57 AM,65.1,64.2,97,30.22,10.0,Calm,Calm,-,N/A,,Clear,0,2013-07-15 10:57:00
6:16 AM,64.6,63.7,97,30.22,5.0,Calm,Calm,-,N/A,,Clear,0,2013-07-15 11:16:00
6:36 AM,64.9,64.4,98,30.22,5.0,Calm,Calm,-,N/A,,Clear,0,2013-07-15 11:36:00
6:57 AM,66.4,65.7,98,30.22,7.0,Calm,Calm,-,N/A,,Clear,0,2013-07-15 11:57:00
7:16 AM,69.8,67.8,93,30.23,10.0,Calm,Calm,-,N/A,,Clear,0,2013-07-15 12:16:00
7:36 AM,71.2,67.6,88,30.23,10.0,Calm,Calm,-,N/A,,Clear,0,2013-07-15 12:36:00
7:57 AM,72.3,68.0,86,30.23,10.0,SSE,3.5,-,N/A,,Clear,150,2013-07-15 12:57:00
8:16 AM,73.4,68.2,84,30.24,10.0,Calm,Calm,-,N/A,,Clear,0,2013-07-15 13:16:00
8:36 AM,74.3,68.5,82,30.24,10.0,Calm,Calm,-,N/A,,Clear,0,2013-07-15 13:36:00
8:56 AM,75.7,69.4,81,30.25,10.0,South,3.5,-,N/A,,Clear,170,2013-07-15 13:56:00
9:16 AM,77.0,69.6,78,30.25,10.0,SSE,3.5,-,N/A,,Clear,160,2013-07-15 14:16:00
9:35 AM,77.7,69.1,75,30.25,10.0,Calm,Calm,-,N/A,,Clear,0,2013-07-15 14:35:00
9:56 AM,78.8,69.4,73,30.25,10.0,South,3.5,-,N/A,,Clear,170,2013-07-15 14:56:00
10:17 AM,79.5,69.4,71,30.25,10.0,South,3.5,-,N/A,,Clear,180,2013-07-15 15:17:00
10:36 AM,80.6,70.2,70,30.25,10.0,South,4.6,-,N/A,,Clear,180,2013-07-15 15:36:00
10:56 AM,81.3,70.5,70,30.24,10.0,SSW,3.5,-,N/A,,Clear,200,2013-07-15 15:56:00
11:16 AM,82.0,70.9,69,30.25,10.0,South,4.6,-,N/A,,Clear,190,2013-07-15 16:16:00
11:36 AM,82.4,70.5,67,30.25,10.0,South,3.5,-,N/A,,Clear,180,2013-07-15 16:36:00
11:56 AM,82.9,71.1,67,30.24,10.0,SSE,3.5,-,N/A,,Clear,160,2013-07-15 16:56:00
12:16 PM,83.5,70.5,65,30.24,10.0,Calm,Calm,-,N/A,,Clear,0,2013-07-15 17:16:00
12:37 PM,83.3,70.7,66,30.24,10.0,Calm,Calm,-,N/A,,Clear,0,2013-07-15 17:37:00
12:56 PM,84.4,69.8,61,30.23,10.0,South,5.8,-,N/A,,Scattered Clouds,170,2013-07-15 17:56:00
1:16 PM,85.5,69.1,58,30.23,10.0,South,5.8,-,N/A,,Scattered Clouds,180,2013-07-15 18:16:00
1:36 PM,86.0,68.4,55,30.23,10.0,South,5.8,-,N/A,,Scattered Clouds,180,2013-07-15 18:36:00
1:56 PM,84.7,68.0,57,30.23,10.0,SSE,3.5,-,N/A,,Scattered Clouds,150,2013-07-15 18:56:00
2:16 PM,85.8,68.7,56,30.23,10.0,SSE,6.9,-,N/A,,Mostly Cloudy,160,2013-07-15 19:16:00
2:37 PM,83.8,69.1,61,30.22,10.0,South,6.9,-,N/A,,Mostly Cloudy,190,2013-07-15 19:37:00
2:57 PM,85.6,68.7,57,30.22,10.0,South,4.6,-,N/A,,Scattered Clouds,170,2013-07-15 19:57:00
3:16 PM,84.9,69.1,59,30.22,10.0,Calm,Calm,-,N/A,,Scattered Clouds,0,2013-07-15 20:16:00
3:36 PM,84.4,67.5,57,30.21,10.0,South,6.9,-,N/A,,Scattered Clouds,170,2013-07-15 20:36:00
3:56 PM,86.5,67.8,53,30.21,10.0,SSE,6.9,-,N/A,,Scattered Clouds,160,2013-07-15 20:56:00
4:16 PM,86.4,67.1,52,30.21,10.0,South,9.2,-,N/A,,Scattered Clouds,180,2013-07-15 21:16:00
4:36 PM,86.0,66.9,53,30.21,10.0,South,9.2,-,N/A,,Scattered Clouds,170,2013-07-15 21:36:00
4:56 PM,84.4,68.0,58,30.20,10.0,SSE,9.2,-,N/A,,Scattered Clouds,150,2013-07-15 21:56:00
5:16 PM,85.5,69.1,58,30.20,10.0,SSE,8.1,-,N/A,,Scattered Clouds,150,2013-07-15 22:16:00
5:36 PM,85.5,67.5,55,30.20,10.0,South,8.1,-,N/A,,Scattered Clouds,180,2013-07-15 22:36:00
5:56 PM,85.1,68.7,58,30.19,10.0,SSE,6.9,-,N/A,,Clear,150,2013-07-15 22:56:00
6:16 PM,84.7,68.0,57,30.19,10.0,SSE,6.9,-,N/A,,Scattered Clouds,150,2013-07-15 23:16:00
6:36 PM,84.4,68.2,58,30.19,10.0,SSE,4.6,-,N/A,,Clear,150,2013-07-15 23:36:00
6:56 PM,83.8,67.8,58,30.19,10.0,South,5.8,-,N/A,,Clear,170,2013-07-15 23:56:00
7:16 PM,83.7,68.5,60,30.18,10.0,SSE,3.5,-,N/A,,Clear,150,2013-07-16 00:16:00
7:36 PM,82.6,69.6,65,30.18,10.0,SE,3.5,-,N/A,,Clear,140,2013-07-16 00:36:00
7:57 PM,81.9,69.6,66,30.18,10.0,Calm,Calm,-,N/A,,Clear,0,2013-07-16 00:57:00
8:16 PM,81.3,71.1,71,30.18,10.0,Calm,Calm,-,N/A,,Clear,0,2013-07-16 01:16:00
8:36 PM,79.7,70.5,73,30.17,10.0,Calm,Calm,-,N/A,,Clear,0,2013-07-16 01:36:00
8:56 PM,79.0,70.2,74,30.17,10.0,SE,3.5,-,N/A,,Clear,140,2013-07-16 01:56:00
9:16 PM,78.1,70.3,77,30.18,10.0,Calm,Calm,-,N/A,,Scattered Clouds,0,2013-07-16 02:16:00
9:37 PM,77.7,70.2,77,30.18,10.0,Calm,Calm,-,N/A,,Scattered Clouds,0,2013-07-16 02:37:00
9:56 PM,77.0,69.8,78,30.18,10.0,Calm,Calm,-,N/A,,Clear,0,2013-07-16 02:56:00
10:16 PM,77.0,70.3,80,30.19,10.0,Calm,Calm,-,N/A,,Clear,0,2013-07-16 03:16:00
10:36 PM,76.5,70.7,82,30.18,10.0,Calm,Calm,-,N/A,,Clear,0,2013-07-16 03:36:00
10:56 PM,75.7,70.5,84,30.18,10.0,Calm,Calm,-,N/A,,Clear,0,2013-07-16 03:56:00
11:16 PM,74.8,70.2,85,30.18,10.0,Calm,Calm,-,N/A,,Clear,0,2013-07-16 04:16:00
11:36 PM,75.2,70.0,84,30.18,10.0,Calm,Calm,-,N/A,,Clear,0,2013-07-16 04:36:00
11:56 PM,75.2,69.8,83,30.19,10.0,Calm,Calm,-,N/A,,Clear,0,2013-07-16 04:56:00